Terminal Aerodrome Forecast
Issued by NWS

Current Version | Previous Version | Graphics & Text | Print | Product List | Glossary On
Versions: 1 2 3 4 5 6 7 8 9 10 11 12 13
833
FTUS41 KILN 212006 AAA
TAFLCK
TAF AMD
KLCK 212006Z 2120/2218 34011KT 2SM -SHRA BR SCT006 OVC015
      TEMPO 2120/2121 OVC006
     FM212130 35010KT P6SM VCSH SCT020 OVC045
     FM220100 34004KT P6SM BKN090
     FM220900 01004KT P6SM SCT080
     FM221700 33010G18KT P6SM VCSH BKN060=

USA.gov is the U.S. government's official web portal to all federal, state and local government web resources and services.